Time,TemperatureF,DewpointF,PressureIn,WindDirection,WindDirectionDegrees,WindSpeedMPH,WindSpeedGustMPH,Humidity,HourlyPrecipIn,Conditions,Clouds,dailyrainin,SoftwareType,DateUTC
2013-05-25 00:00:00,49.6,45.0,29.79,South,169,5.0,9.0,84,0.00,CLR,,0.00,WeatherDisplay:10.37,2013-05-25 07:00:00,
2013-05-25 00:05:00,49.5,44.9,29.79,SSE,158,6.0,11.0,84,0.00,CLR,,0.00,WeatherDisplay:10.37,2013-05-25 07:05:00,
2013-05-25 00:10:00,49.5,44.9,29.79,SSE,158,5.0,9.0,84,0.00,CLR,,0.00,WeatherDisplay:10.37,2013-05-25 07:10:00,
2013-05-25 00:15:00,49.6,45.0,29.79,SSE,148,6.0,12.0,84,0.00,CLR,,0.00,WeatherDisplay:10.37,2013-05-25 07:15:00,
2013-05-25 00:20:00,49.4,44.5,29.78,SSE,158,3.0,9.0,83,0.00,CLR,,0.00,WeatherDisplay:10.37,2013-05-25 07:20:00,
2013-05-25 00:25:00,49.2,44.6,29.78,South,170,5.0,9.0,84,0.00,CLR,,0.00,WeatherDisplay:10.37,2013-05-25 07:25:00,
2013-05-25 00:30:00,49.1,44.2,29.78,South,180,5.0,11.0,83,0.00,CLR,,0.00,WeatherDisplay:10.37,2013-05-25 07:30:00,
2013-05-25 00:35:00,49.1,44.2,29.78,South,169,5.0,7.0,83,0.00,CLR,,0.00,WeatherDisplay:10.37,2013-05-25 07:35:00,
2013-05-25 00:40:00,49.0,44.1,29.78,South,171,7.0,12.0,83,0.00,CLR,,0.00,WeatherDisplay:10.37,2013-05-25 07:40:00,
2013-05-25 00:45:00,49.3,44.4,29.78,South,180,6.0,11.0,83,0.00,CLR,,0.00,WeatherDisplay:10.37,2013-05-25 07:45:00,
2013-05-25 00:50:00,49.6,44.3,29.77,South,180,6.0,11.0,82,0.00,CLR,,0.00,WeatherDisplay:10.37,2013-05-25 07:50:00,
2013-05-25 00:55:00,49.3,44.4,29.77,South,190,5.0,9.0,83,0.00,CLR,,0.00,WeatherDisplay:10.37,2013-05-25 07:55:00,
2013-05-25 01:00:00,48.9,44.3,29.77,SSW,202,5.0,9.0,84,0.00,CLR,,0.00,WeatherDisplay:10.37,2013-05-25 08:00:00,
2013-05-25 01:05:00,48.6,44.0,29.77,South,191,5.0,8.0,84,0.00,CLR,,0.00,WeatherDisplay:10.37,2013-05-25 08:05:00,
2013-05-25 01:10:00,48.3,44.0,29.77,South,180,5.0,7.0,85,0.00,CLR,,0.00,WeatherDisplay:10.37,2013-05-25 08:10:00,
2013-05-25 01:15:00,48.1,43.8,29.77,South,180,5.0,7.0,85,0.00,CLR,,0.00,WeatherDisplay:10.37,2013-05-25 08:15:00,
2013-05-25 01:20:00,48.2,43.9,29.77,South,186,5.0,7.0,85,0.00,CLR,,0.00,WeatherDisplay:10.37,2013-05-25 08:20:00,
2013-05-25 01:25:00,48.3,43.7,29.77,South,180,5.0,9.0,84,0.00,CLR,,0.00,WeatherDisplay:10.37,2013-05-25 08:25:00,
2013-05-25 01:30:00,48.0,44.0,29.77,South,182,5.0,12.0,86,0.00,CLR,,0.00,WeatherDisplay:10.37,2013-05-25 08:30:00,
2013-05-25 01:35:00,48.5,43.3,29.77,South,180,6.0,10.0,82,0.00,CLR,,0.00,WeatherDisplay:10.37,2013-05-25 08:35:00,
2013-05-25 01:40:00,48.3,42.7,29.77,South,170,5.0,10.0,81,0.00,CLR,,0.00,WeatherDisplay:10.37,2013-05-25 08:40:00,
2013-05-25 01:45:00,48.2,42.6,29.77,South,169,5.0,7.0,81,0.00,CLR,,0.00,WeatherDisplay:10.37,2013-05-25 08:45:00,
2013-05-25 01:50:00,47.8,42.6,29.76,South,180,5.0,10.0,82,0.00,CLR,,0.00,WeatherDisplay:10.37,2013-05-25 08:50:00,
2013-05-25 01:55:00,47.7,42.8,29.76,SSW,192,6.0,10.0,83,0.00,CLR,,0.00,WeatherDisplay:10.37,2013-05-25 08:55:00,
2013-05-25 02:00:00,47.6,43.0,29.76,SSW,202,5.0,9.0,84,0.00,CLR,,0.00,WeatherDisplay:10.37,2013-05-25 09:00:00,
2013-05-25 02:05:00,47.6,43.0,29.76,SSW,202,6.0,11.0,84,0.00,CLR,,0.00,WeatherDisplay:10.37,2013-05-25 09:05:00,
2013-05-25 02:10:00,47.6,43.0,29.76,SSW,202,7.0,11.0,84,0.00,CLR,,0.00,WeatherDisplay:10.37,2013-05-25 09:10:00,
2013-05-25 02:15:00,47.6,43.0,29.76,SSW,202,6.0,10.0,84,0.00,CLR,,0.00,WeatherDisplay:10.37,2013-05-25 09:15:00,
2013-05-25 02:20:00,47.4,42.8,29.77,SSW,202,7.0,11.0,84,0.00,CLR,,0.00,WeatherDisplay:10.37,2013-05-25 09:20:00,
2013-05-25 02:25:00,47.3,43.0,29.77,SSW,202,6.0,11.0,85,0.00,CLR,,0.00,WeatherDisplay:10.37,2013-05-25 09:25:00,
2013-05-25 02:30:00,47.3,43.0,29.77,South,191,6.0,11.0,85,0.00,CLR,,0.00,WeatherDisplay:10.37,2013-05-25 09:30:00,
2013-05-25 02:35:00,47.4,42.8,29.77,South,180,7.0,15.0,84,0.00,CLR,,0.00,WeatherDisplay:10.37,2013-05-25 09:35:00,
2013-05-25 02:40:00,47.7,42.8,29.77,South,189,5.0,10.0,83,0.00,CLR,,0.00,WeatherDisplay:10.37,2013-05-25 09:40:00,
2013-05-25 02:45:00,47.7,42.5,29.77,South,190,6.0,12.0,82,0.00,CLR,,0.00,WeatherDisplay:10.37,2013-05-25 09:45:00,
2013-05-25 02:50:00,48.1,42.5,29.76,SSE,167,8.0,11.0,81,0.00,CLR,,0.00,WeatherDisplay:10.37,2013-05-25 09:50:00,
2013-05-25 02:55:00,48.2,42.3,29.76,SSE,158,5.0,9.0,80,0.00,CLR,,0.00,WeatherDisplay:10.37,2013-05-25 09:55:00,
2013-05-25 03:00:00,48.2,43.3,29.77,South,169,8.0,12.0,83,0.00,CLR,,0.00,WeatherDisplay:10.37,2013-05-25 10:00:00,
2013-05-25 03:05:00,47.8,42.3,29.76,SSE,168,6.0,11.0,81,0.00,CLR,,0.00,WeatherDisplay:10.37,2013-05-25 10:05:00,
2013-05-25 03:10:00,47.5,42.3,29.76,SSE,158,6.0,10.0,82,0.00,CLR,,0.00,WeatherDisplay:10.37,2013-05-25 10:10:00,
2013-05-25 03:15:00,47.4,42.5,29.76,SSE,158,7.0,12.0,83,0.00,CLR,,0.00,WeatherDisplay:10.37,2013-05-25 10:15:00,
2013-05-25 03:20:00,47.6,42.7,29.75,SSE,158,7.0,12.0,83,0.00,CLR,,0.00,WeatherDisplay:10.37,2013-05-25 10:20:00,
2013-05-25 03:25:00,47.6,42.7,29.75,SSE,158,7.0,10.0,83,0.00,CLR,,0.00,WeatherDisplay:10.37,2013-05-25 10:25:00,
2013-05-25 03:30:00,47.6,42.7,29.75,SSE,158,8.0,14.0,83,0.00,CLR,,0.00,WeatherDisplay:10.37,2013-05-25 10:30:00,
2013-05-25 03:35:00,47.6,42.7,29.75,SSE,158,7.0,12.0,83,0.00,CLR,,0.00,WeatherDisplay:10.37,2013-05-25 10:35:00,
2013-05-25 03:40:00,47.4,42.5,29.75,South,169,7.0,11.0,83,0.00,CLR,,0.00,WeatherDisplay:10.37,2013-05-25 10:40:00,
2013-05-25 03:45:00,47.3,42.4,29.75,South,180,8.0,13.0,83,0.00,CLR,,0.00,WeatherDisplay:10.37,2013-05-25 10:45:00,
2013-05-25 03:50:00,47.3,42.1,29.76,South,180,8.0,13.0,82,0.00,CLR,,0.00,WeatherDisplay:10.37,2013-05-25 10:50:00,
2013-05-25 03:55:00,47.4,41.9,29.76,South,180,8.0,16.0,81,0.00,CLR,,0.00,WeatherDisplay:10.37,2013-05-25 10:55:00,
2013-05-25 04:00:00,47.3,42.1,29.76,SSE,165,7.0,13.0,82,0.00,CLR,,0.00,WeatherDisplay:10.37,2013-05-25 11:00:00,
2013-05-25 04:05:00,47.2,41.7,29.76,South,180,6.0,11.0,81,0.00,CLR,,0.00,WeatherDisplay:10.37,2013-05-25 11:05:00,
2013-05-25 04:10:00,46.9,42.0,29.76,South,180,7.0,11.0,83,0.00,CLR,,0.00,WeatherDisplay:10.37,2013-05-25 11:10:00,
2013-05-25 04:15:00,46.6,42.0,29.76,South,180,6.0,9.0,84,0.00,CLR,,0.00,WeatherDisplay:10.37,2013-05-25 11:15:00,
2013-05-25 04:20:00,46.4,41.5,29.77,South,180,5.0,7.0,83,0.00,CLR,,0.00,WeatherDisplay:10.37,2013-05-25 11:20:00,
2013-05-25 04:25:00,46.3,41.4,29.77,South,180,5.0,10.0,83,0.00,CLR,,0.00,WeatherDisplay:10.37,2013-05-25 11:25:00,
2013-05-25 04:30:00,46.4,41.2,29.77,South,180,3.0,7.0,82,0.00,CLR,,0.00,WeatherDisplay:10.37,2013-05-25 11:30:00,
2013-05-25 04:35:00,46.4,41.2,29.77,South,180,3.0,7.0,82,0.00,CLR,,0.00,WeatherDisplay:10.37,2013-05-25 11:35:00,
2013-05-25 04:40:00,46.7,40.9,29.77,South,180,5.0,13.0,80,0.00,CLR,,0.00,WeatherDisplay:10.37,2013-05-25 11:40:00,
2013-05-25 04:45:00,47.0,40.5,29.77,South,169,5.0,9.0,78,0.00,CLR,,0.00,WeatherDisplay:10.37,2013-05-25 11:45:00,
2013-05-25 04:50:00,47.2,40.4,29.77,South,170,6.0,14.0,77,0.00,CLR,,0.00,WeatherDisplay:10.37,2013-05-25 11:50:00,
2013-05-25 04:55:00,47.4,39.9,29.77,South,180,3.0,7.0,75,0.00,CLR,,0.00,WeatherDisplay:10.37,2013-05-25 11:55:00,
2013-05-25 05:00:00,47.3,40.1,29.77,South,180,5.0,9.0,76,0.00,CLR,,0.00,WeatherDisplay:10.37,2013-05-25 12:00:00,
2013-05-25 05:05:00,47.1,40.3,29.77,South,180,6.0,9.0,77,0.00,CLR,,0.00,WeatherDisplay:10.37,2013-05-25 12:05:00,
2013-05-25 05:10:00,46.7,40.2,29.77,SSW,192,7.0,10.0,78,0.00,CLR,,0.00,WeatherDisplay:10.37,2013-05-25 12:10:00,
2013-05-25 05:15:00,46.5,40.0,29.77,SSW,202,8.0,12.0,78,0.00,CLR,,0.00,WeatherDisplay:10.37,2013-05-25 12:15:00,
2013-05-25 05:20:00,46.3,40.1,29.78,SSW,202,7.0,11.0,79,0.00,CLR,,0.00,WeatherDisplay:10.37,2013-05-25 12:20:00,
2013-05-25 05:25:00,46.1,40.3,29.78,SSW,202,7.0,10.0,80,0.00,CLR,,0.00,WeatherDisplay:10.37,2013-05-25 12:25:00,
2013-05-25 05:30:00,45.7,40.2,29.78,SSW,202,6.0,10.0,81,0.00,CLR,,0.00,WeatherDisplay:10.37,2013-05-25 12:30:00,
2013-05-25 05:35:00,45.7,40.2,29.78,SSW,202,5.0,7.0,81,0.00,CLR,,0.00,WeatherDisplay:10.37,2013-05-25 12:35:00,
2013-05-25 05:40:00,45.5,39.7,29.78,SSW,202,6.0,9.0,80,0.00,CLR,,0.00,WeatherDisplay:10.37,2013-05-25 12:40:00,
2013-05-25 05:45:00,45.8,39.3,29.78,SSW,202,7.0,10.0,78,0.00,CLR,,0.00,WeatherDisplay:10.37,2013-05-25 12:45:00,
2013-05-25 05:50:00,45.7,39.2,29.78,SSW,202,8.0,11.0,78,0.00,CLR,,0.00,WeatherDisplay:10.37,2013-05-25 12:50:00,
2013-05-25 05:55:00,45.5,39.0,29.78,South,190,9.0,13.0,78,0.00,CLR,,0.00,WeatherDisplay:10.37,2013-05-25 12:55:00,
2013-05-25 06:00:00,45.5,39.0,29.78,South,191,9.0,14.0,78,0.00,CLR,,0.00,WeatherDisplay:10.37,2013-05-25 13:00:00,
2013-05-25 06:05:00,45.7,39.2,29.78,SSW,202,9.0,13.0,78,0.00,CLR,,0.00,WeatherDisplay:10.37,2013-05-25 13:05:00,
2013-05-25 06:10:00,46.4,37.9,29.78,South,191,9.0,17.0,72,0.00,CLR,,0.00,WeatherDisplay:10.37,2013-05-25 13:10:00,
2013-05-25 06:15:00,45.7,39.2,29.78,SSW,194,8.0,13.0,78,0.00,CLR,,0.00,WeatherDisplay:10.37,2013-05-25 13:15:00,
2013-05-25 06:20:00,48.2,37.4,29.79,South,180,12.0,16.0,66,0.00,CLR,,0.00,WeatherDisplay:10.37,2013-05-25 13:20:00,
2013-05-25 06:25:00,48.8,36.8,29.79,South,180,10.0,16.0,63,0.00,CLR,,0.00,WeatherDisplay:10.37,2013-05-25 13:25:00,
2013-05-25 06:30:00,48.3,37.9,29.78,South,187,10.0,16.0,67,0.00,CLR,,0.00,WeatherDisplay:10.37,2013-05-25 13:30:00,
2013-05-25 06:35:00,50.0,35.8,29.79,SSW,192,12.0,15.0,58,0.00,CLR,,0.00,WeatherDisplay:10.37,2013-05-25 13:35:00,
2013-05-25 06:40:00,50.3,35.6,29.79,SSW,202,10.0,15.0,57,0.00,CLR,,0.00,WeatherDisplay:10.37,2013-05-25 13:40:00,
2013-05-25 06:45:00,50.4,37.0,29.79,SSW,202,10.0,14.0,60,0.00,CLR,,0.00,WeatherDisplay:10.37,2013-05-25 13:45:00,
2013-05-25 06:50:00,50.1,37.6,29.79,SSW,202,10.0,15.0,62,0.00,CLR,,0.00,WeatherDisplay:10.37,2013-05-25 13:50:00,
2013-05-25 06:55:00,50.0,37.9,29.79,SSW,202,12.0,16.0,63,0.00,CLR,,0.00,WeatherDisplay:10.37,2013-05-25 13:55:00,
2013-05-25 07:00:00,50.0,39.8,29.79,SSW,202,12.0,15.0,68,0.00,CLR,,0.00,WeatherDisplay:10.37,2013-05-25 14:00:00,
2013-05-25 07:05:00,49.7,40.7,29.79,SSW,202,12.0,16.0,71,0.00,CLR,,0.00,WeatherDisplay:10.37,2013-05-25 14:05:00,
2013-05-25 07:10:00,49.4,40.7,29.79,SSW,202,12.0,14.0,72,0.00,CLR,,0.00,WeatherDisplay:10.37,2013-05-25 14:10:00,
2013-05-25 07:15:00,49.5,40.1,29.79,SSW,202,9.0,13.0,70,0.00,CLR,,0.00,WeatherDisplay:10.37,2013-05-25 14:15:00,
2013-05-25 07:20:00,50.3,39.0,29.80,SSW,202,9.0,14.0,65,0.00,CLR,,0.00,WeatherDisplay:10.37,2013-05-25 14:20:00,
2013-05-25 07:25:00,51.2,38.6,29.80,SSW,202,10.0,15.0,62,0.00,CLR,,0.00,WeatherDisplay:10.37,2013-05-25 14:25:00,
2013-05-25 07:30:00,51.5,39.7,29.80,SSW,202,12.0,16.0,64,0.00,CLR,,0.00,WeatherDisplay:10.37,2013-05-25 14:30:00,
2013-05-25 07:35:00,51.1,40.5,29.80,SSW,202,12.0,16.0,67,0.00,CLR,,0.00,WeatherDisplay:10.37,2013-05-25 14:35:00,
2013-05-25 07:40:00,51.0,40.4,29.80,SSW,202,13.0,16.0,67,0.00,CLR,,0.00,WeatherDisplay:10.37,2013-05-25 14:40:00,
2013-05-25 07:45:00,51.1,40.1,29.80,SSW,213,12.0,16.0,66,0.00,CLR,,0.00,WeatherDisplay:10.37,2013-05-25 14:45:00,
2013-05-25 07:50:00,51.0,40.8,29.80,SSW,210,12.0,16.0,68,0.00,CLR,,0.00,WeatherDisplay:10.37,2013-05-25 14:50:00,
2013-05-25 07:55:00,51.9,39.3,29.80,SW,225,12.0,16.0,62,0.00,CLR,,0.00,WeatherDisplay:10.37,2013-05-25 14:55:00,
2013-05-25 08:00:00,52.1,37.3,29.80,SW,225,12.0,17.0,57,0.00,CLR,,0.00,WeatherDisplay:10.37,2013-05-25 15:00:00,
2013-05-25 08:05:00,52.6,39.1,29.80,SW,225,13.0,19.0,60,0.00,CLR,,0.00,WeatherDisplay:10.37,2013-05-25 15:05:00,
2013-05-25 08:10:00,52.9,38.1,29.80,SW,225,12.0,17.0,57,0.00,CLR,,0.00,WeatherDisplay:10.37,2013-05-25 15:10:00,
2013-05-25 08:15:00,53.4,38.1,29.80,SW,225,10.0,16.0,56,0.00,CLR,,0.00,WeatherDisplay:10.37,2013-05-25 15:15:00,
2013-05-25 08:20:00,53.6,38.3,29.81,SW,225,13.0,17.0,56,0.00,CLR,,0.00,WeatherDisplay:10.37,2013-05-25 15:20:00,
2013-05-25 08:25:00,53.6,38.3,29.81,SW,225,13.0,18.0,56,0.00,CLR,,0.00,WeatherDisplay:10.37,2013-05-25 15:25:00,
2013-05-25 08:30:00,54.0,37.7,29.81,SW,225,14.0,18.0,54,0.00,CLR,,0.00,WeatherDisplay:10.37,2013-05-25 15:30:00,
2013-05-25 08:35:00,54.4,37.6,29.81,SSW,213,15.0,19.0,53,0.00,CLR,,0.00,WeatherDisplay:10.37,2013-05-25 15:35:00,
2013-05-25 08:40:00,54.9,38.1,29.81,SSW,202,15.0,20.0,53,0.00,CLR,,0.00,WeatherDisplay:10.37,2013-05-25 15:40:00,
2013-05-25 08:45:00,55.0,38.2,29.81,SSW,213,14.0,19.0,53,0.00,CLR,,0.00,WeatherDisplay:10.37,2013-05-25 15:45:00,
2013-05-25 08:50:00,55.0,38.2,29.81,SW,214,15.0,20.0,53,0.00,CLR,,0.00,WeatherDisplay:10.37,2013-05-25 15:50:00,
2013-05-25 08:55:00,55.7,37.8,29.81,SSW,202,13.0,19.0,51,0.00,CLR,,0.00,WeatherDisplay:10.37,2013-05-25 15:55:00,
2013-05-25 09:00:00,56.4,38.0,29.81,SW,214,14.0,19.0,50,0.00,CLR,,0.00,WeatherDisplay:10.37,2013-05-25 16:00:00,
2013-05-25 09:05:00,56.6,38.2,29.80,SW,225,14.0,18.0,50,0.00,CLR,,0.00,WeatherDisplay:10.37,2013-05-25 16:05:00,
2013-05-25 09:10:00,56.8,38.3,29.80,SW,225,14.0,19.0,50,0.00,CLR,,0.00,WeatherDisplay:10.37,2013-05-25 16:10:00,
2013-05-25 09:15:00,57.2,38.2,29.80,SW,225,14.0,20.0,49,0.00,CLR,,0.00,WeatherDisplay:10.37,2013-05-25 16:15:00,
2013-05-25 09:20:00,57.7,38.7,29.80,SW,225,13.0,19.0,49,0.00,CLR,,0.00,WeatherDisplay:10.37,2013-05-25 16:20:00,
2013-05-25 09:25:00,58.3,38.7,29.80,SW,225,14.0,19.0,48,0.00,CLR,,0.00,WeatherDisplay:10.37,2013-05-25 16:25:00,
2013-05-25 09:30:00,59.0,38.2,29.80,SW,225,13.0,20.0,46,0.00,CLR,,0.00,WeatherDisplay:10.37,2013-05-25 16:30:00,
2013-05-25 09:35:00,59.3,38.5,29.80,SSW,213,13.0,19.0,46,0.00,CLR,,0.00,WeatherDisplay:10.37,2013-05-25 16:35:00,
2013-05-25 09:40:00,59.7,37.7,29.80,SSW,213,13.0,19.0,44,0.00,CLR,,0.00,WeatherDisplay:10.37,2013-05-25 16:40:00,
2013-05-25 09:45:00,60.2,39.3,29.80,SW,225,13.0,20.0,46,0.00,CLR,,0.00,WeatherDisplay:10.37,2013-05-25 16:45:00,
2013-05-25 09:50:00,60.6,38.0,29.79,SW,225,14.0,22.0,43,0.00,CLR,,0.00,WeatherDisplay:10.37,2013-05-25 16:50:00,
2013-05-25 09:55:00,60.8,37.5,29.79,SW,225,14.0,20.0,42,0.00,CLR,,0.00,WeatherDisplay:10.37,2013-05-25 16:55:00,
2013-05-25 10:00:00,61.1,36.6,29.79,SW,225,14.0,22.0,40,0.00,CLR,,0.00,WeatherDisplay:10.37,2013-05-25 17:00:00,
2013-05-25 10:05:00,61.4,37.5,29.78,SW,225,16.0,21.0,41,0.00,CLR,,0.00,WeatherDisplay:10.37,2013-05-25 17:05:00,
2013-05-25 10:10:00,61.7,38.4,29.78,SW,214,15.0,20.0,42,0.00,CLR,,0.00,WeatherDisplay:10.37,2013-05-25 17:10:00,
2013-05-25 10:15:00,61.5,36.9,29.79,SW,224,18.0,21.0,40,0.00,CLR,,0.00,WeatherDisplay:10.37,2013-05-25 17:15:00,
2013-05-25 10:20:00,62.3,38.9,29.79,SSW,202,15.0,26.0,42,0.00,CLR,,0.00,WeatherDisplay:10.37,2013-05-25 17:20:00,
2013-05-25 10:25:00,62.3,37.7,29.79,SSW,213,15.0,21.0,40,0.00,CLR,,0.00,WeatherDisplay:10.37,2013-05-25 17:25:00,
2013-05-25 10:30:00,63.2,38.5,29.79,SW,214,13.0,20.0,40,0.00,CLR,,0.00,WeatherDisplay:10.37,2013-05-25 17:30:00,
2013-05-25 10:35:00,63.9,38.4,29.79,SSW,202,14.0,21.0,39,0.00,CLR,,0.00,WeatherDisplay:10.37,2013-05-25 17:35:00,
2013-05-25 10:40:00,63.4,39.3,29.79,SSW,213,14.0,23.0,41,0.00,CLR,,0.00,WeatherDisplay:10.37,2013-05-25 17:40:00,
2013-05-25 10:45:00,63.9,38.4,29.79,SW,225,16.0,23.0,39,0.00,CLR,,0.00,WeatherDisplay:10.37,2013-05-25 17:45:00,
2013-05-25 10:50:00,63.8,39.0,29.80,SSW,213,16.0,22.0,40,0.00,CLR,,0.00,WeatherDisplay:10.37,2013-05-25 17:50:00,
2013-05-25 10:55:00,64.0,40.4,29.80,SSW,202,16.0,24.0,42,0.00,CLR,,0.00,WeatherDisplay:10.37,2013-05-25 17:55:00,
2013-05-25 11:00:00,63.9,39.1,29.80,SSW,202,16.0,25.0,40,0.00,CLR,,0.00,WeatherDisplay:10.37,2013-05-25 18:00:00,
2013-05-25 11:05:00,64.3,38.1,29.80,SSW,202,15.0,21.0,38,0.00,CLR,,0.00,WeatherDisplay:10.37,2013-05-25 18:05:00,
2013-05-25 11:10:00,64.8,35.8,29.80,SW,214,17.0,24.0,34,0.00,CLR,,0.00,WeatherDisplay:10.37,2013-05-25 18:10:00,
2013-05-25 11:15:00,64.3,37.5,29.80,SW,225,16.0,23.0,37,0.00,CLR,,0.00,WeatherDisplay:10.37,2013-05-25 18:15:00,
2013-05-25 11:20:00,64.5,36.2,29.80,SSW,213,18.0,25.0,35,0.00,CLR,,0.00,WeatherDisplay:10.37,2013-05-25 18:20:00,
2013-05-25 11:25:00,64.9,37.3,29.80,SSW,202,16.0,24.0,36,0.00,CLR,,0.00,WeatherDisplay:10.37,2013-05-25 18:25:00,
2013-05-25 11:30:00,65.2,33.8,29.80,SSW,202,17.0,25.0,31,0.00,CLR,,0.00,WeatherDisplay:10.37,2013-05-25 18:30:00,
2013-05-25 11:35:00,64.8,35.0,29.80,SSW,213,17.0,23.0,33,0.00,CLR,,0.00,WeatherDisplay:10.37,2013-05-25 18:35:00,
2013-05-25 11:40:00,65.0,37.4,29.80,SW,214,16.0,24.0,36,0.00,CLR,,0.00,WeatherDisplay:10.37,2013-05-25 18:40:00,
2013-05-25 11:45:00,65.7,35.0,29.80,SSW,202,17.0,23.0,32,0.00,CLR,,0.00,WeatherDisplay:10.37,2013-05-25 18:45:00,
2013-05-25 11:50:00,65.9,36.7,29.79,SSW,213,16.0,25.0,34,0.00,CLR,,0.00,WeatherDisplay:10.37,2013-05-25 18:50:00,
2013-05-25 11:55:00,65.9,37.5,29.79,SSW,213,17.0,24.0,35,0.00,CLR,,0.00,WeatherDisplay:10.37,2013-05-25 18:55:00,
2013-05-25 12:00:00,65.6,36.5,29.79,SSW,202,16.0,22.0,34,0.00,CLR,,0.00,WeatherDisplay:10.37,2013-05-25 19:00:00,
2013-05-25 12:05:00,65.6,36.5,29.79,SSW,213,15.0,21.0,34,0.00,CLR,,0.00,WeatherDisplay:10.37,2013-05-25 19:05:00,
2013-05-25 12:10:00,65.9,36.7,29.79,SW,225,16.0,25.0,34,0.00,CLR,,0.00,WeatherDisplay:10.37,2013-05-25 19:10:00,
2013-05-25 12:15:00,65.8,37.4,29.79,SW,225,16.0,23.0,35,0.00,CLR,,0.00,WeatherDisplay:10.37,2013-05-25 19:15:00,
2013-05-25 12:20:00,66.4,36.4,29.80,SSW,213,16.0,26.0,33,0.00,CLR,,0.00,WeatherDisplay:10.37,2013-05-25 19:20:00,
2013-05-25 12:25:00,66.5,35.7,29.80,SW,214,17.0,25.0,32,0.00,CLR,,0.00,WeatherDisplay:10.37,2013-05-25 19:25:00,
2013-05-25 12:30:00,66.7,35.9,29.80,SW,225,17.0,28.0,32,0.00,CLR,,0.00,WeatherDisplay:10.37,2013-05-25 19:30:00,
2013-05-25 12:35:00,66.5,35.7,29.80,SSW,213,16.0,23.0,32,0.00,CLR,,0.00,WeatherDisplay:10.37,2013-05-25 19:35:00,
2013-05-25 12:40:00,66.9,36.8,29.80,SSW,213,18.0,27.0,33,0.00,CLR,,0.00,WeatherDisplay:10.37,2013-05-25 19:40:00,
2013-05-25 12:45:00,66.5,36.5,29.80,SW,225,18.0,24.0,33,0.00,CLR,,0.00,WeatherDisplay:10.37,2013-05-25 19:45:00,
2013-05-25 12:50:00,66.7,38.2,29.80,SW,225,20.0,30.0,35,0.00,CLR,,0.00,WeatherDisplay:10.37,2013-05-25 19:50:00,
2013-05-25 12:55:00,66.9,37.6,29.80,SW,225,18.0,26.0,34,0.00,CLR,,0.00,WeatherDisplay:10.37,2013-05-25 19:55:00,
2013-05-25 13:00:00,66.7,37.4,29.80,SW,225,16.0,26.0,34,0.00,CLR,,0.00,WeatherDisplay:10.37,2013-05-25 20:00:00,
2013-05-25 13:05:00,66.8,39.0,29.79,SW,225,18.0,27.0,36,0.00,CLR,,0.00,WeatherDisplay:10.37,2013-05-25 20:05:00,
2013-05-25 13:10:00,66.8,38.3,29.79,SW,225,18.0,28.0,35,0.00,CLR,,0.00,WeatherDisplay:10.37,2013-05-25 20:10:00,
2013-05-25 13:15:00,66.6,38.8,29.79,SW,225,18.0,25.0,36,0.00,CLR,,0.00,WeatherDisplay:10.37,2013-05-25 20:15:00,
2013-05-25 13:20:00,67.2,39.3,29.80,SW,225,18.0,27.0,36,0.00,CLR,,0.00,WeatherDisplay:10.37,2013-05-25 20:20:00,
2013-05-25 13:25:00,66.3,39.2,29.80,SW,225,21.0,29.0,37,0.00,CLR,,0.00,WeatherDisplay:10.37,2013-05-25 20:25:00,
2013-05-25 13:30:00,66.4,37.9,29.80,SW,225,18.0,26.0,35,0.00,CLR,,0.00,WeatherDisplay:10.37,2013-05-25 20:30:00,
2013-05-25 13:35:00,66.4,40.0,29.80,SW,225,20.0,31.0,38,0.00,CLR,,0.00,WeatherDisplay:10.37,2013-05-25 20:35:00,
2013-05-25 13:40:00,66.4,38.6,29.80,SW,225,18.0,27.0,36,0.00,CLR,,0.00,WeatherDisplay:10.37,2013-05-25 20:40:00,
2013-05-25 13:45:00,67.0,38.4,29.80,SW,225,20.0,26.0,35,0.00,CLR,,0.00,WeatherDisplay:10.37,2013-05-25 20:45:00,
2013-05-25 13:50:00,66.9,39.1,29.80,SW,214,18.0,26.0,36,0.00,CLR,,0.00,WeatherDisplay:10.37,2013-05-25 20:50:00,
2013-05-25 13:55:00,66.8,39.7,29.80,SW,214,20.0,27.0,37,0.00,CLR,,0.00,WeatherDisplay:10.37,2013-05-25 20:55:00,
2013-05-25 14:00:00,67.0,39.1,29.80,SW,225,18.0,26.0,36,0.00,CLR,,0.00,WeatherDisplay:10.37,2013-05-25 21:00:00,
2013-05-25 14:05:00,67.2,39.3,29.80,SW,225,20.0,27.0,36,0.00,CLR,,0.00,WeatherDisplay:10.37,2013-05-25 21:05:00,
2013-05-25 14:10:00,66.7,39.6,29.80,SW,225,20.0,33.0,37,0.00,CLR,,0.00,WeatherDisplay:10.37,2013-05-25 21:10:00,
2013-05-25 14:15:00,67.0,37.7,29.80,SW,225,20.0,26.0,34,0.00,CLR,,0.00,WeatherDisplay:10.37,2013-05-25 21:15:00,
2013-05-25 14:20:00,67.1,39.2,29.80,SW,214,18.0,27.0,36,0.00,CLR,,0.00,WeatherDisplay:10.37,2013-05-25 21:20:00,
2013-05-25 14:25:00,66.9,39.1,29.80,SSW,202,20.0,29.0,36,0.00,CLR,,0.00,WeatherDisplay:10.37,2013-05-25 21:25:00,
2013-05-25 14:30:00,67.1,38.5,29.80,SSW,213,17.0,25.0,35,0.00,CLR,,0.00,WeatherDisplay:10.37,2013-05-25 21:30:00,
2013-05-25 14:35:00,67.4,38.8,29.80,SW,225,17.0,24.0,35,0.00,CLR,,0.00,WeatherDisplay:10.37,2013-05-25 21:35:00,
2013-05-25 14:40:00,67.1,39.2,29.80,SW,225,18.0,25.0,36,0.00,CLR,,0.00,WeatherDisplay:10.37,2013-05-25 21:40:00,
2013-05-25 14:45:00,67.3,38.7,29.80,SW,225,17.0,28.0,35,0.00,CLR,,0.00,WeatherDisplay:10.37,2013-05-25 21:45:00,
2013-05-25 14:50:00,67.2,39.3,29.80,SW,225,20.0,26.0,36,0.00,CLR,,0.00,WeatherDisplay:10.37,2013-05-25 21:50:00,
2013-05-25 14:55:00,66.9,39.1,29.80,SW,225,18.0,27.0,36,0.00,CLR,,0.00,WeatherDisplay:10.37,2013-05-25 21:55:00,
2013-05-25 15:00:00,67.1,39.2,29.80,SW,225,20.0,26.0,36,0.00,CLR,,0.00,WeatherDisplay:10.37,2013-05-25 22:00:00,
2013-05-25 15:05:00,66.9,39.8,29.80,SW,225,20.0,26.0,37,0.00,CLR,,0.00,WeatherDisplay:10.37,2013-05-25 22:05:00,
2013-05-25 15:10:00,67.1,39.9,29.80,SW,225,20.0,28.0,37,0.00,CLR,,0.00,WeatherDisplay:10.37,2013-05-25 22:10:00,
2013-05-25 15:15:00,66.8,39.7,29.80,SW,225,20.0,32.0,37,0.00,CLR,,0.00,WeatherDisplay:10.37,2013-05-25 22:15:00,
2013-05-25 15:20:00,67.0,39.9,29.79,SW,225,20.0,28.0,37,0.00,CLR,,0.00,WeatherDisplay:10.37,2013-05-25 22:20:00,
2013-05-25 15:25:00,67.2,40.7,29.79,SW,225,20.0,30.0,38,0.00,CLR,,0.00,WeatherDisplay:10.37,2013-05-25 22:25:00,
2013-05-25 15:30:00,67.0,39.9,29.79,SW,225,20.0,27.0,37,0.00,CLR,,0.00,WeatherDisplay:10.37,2013-05-25 22:30:00,
2013-05-25 15:35:00,67.4,38.0,29.78,SW,225,20.0,29.0,34,0.00,CLR,,0.00,WeatherDisplay:10.37,2013-05-25 22:35:00,
2013-05-25 15:40:00,67.0,41.2,29.78,SW,225,21.0,28.0,39,0.00,CLR,,0.00,WeatherDisplay:10.37,2013-05-25 22:40:00,
2013-05-25 15:45:00,66.9,41.1,29.78,SW,225,20.0,28.0,39,0.00,CLR,,0.00,WeatherDisplay:10.37,2013-05-25 22:45:00,
2013-05-25 15:50:00,67.1,40.6,29.78,SW,225,20.0,28.0,38,0.00,CLR,,0.00,WeatherDisplay:10.37,2013-05-25 22:50:00,
2013-05-25 15:55:00,67.4,40.9,29.78,SSW,213,20.0,31.0,38,0.00,CLR,,0.00,WeatherDisplay:10.37,2013-05-25 22:55:00,
2013-05-25 16:00:00,67.4,41.6,29.78,SSW,213,20.0,32.0,39,0.00,CLR,,0.00,WeatherDisplay:10.37,2013-05-25 23:00:00,
2013-05-25 16:05:00,67.8,41.3,29.78,SW,225,20.0,29.0,38,0.00,CLR,,0.00,WeatherDisplay:10.37,2013-05-25 23:05:00,
2013-05-25 16:10:00,67.8,41.9,29.78,SW,225,21.0,30.0,39,0.00,CLR,,0.00,WeatherDisplay:10.37,2013-05-25 23:10:00,
2013-05-25 16:15:00,67.4,42.2,29.78,SW,225,20.0,28.0,40,0.00,CLR,,0.00,WeatherDisplay:10.37,2013-05-25 23:15:00,
2013-05-25 16:20:00,67.6,42.4,29.78,SSW,213,21.0,30.0,40,0.00,CLR,,0.00,WeatherDisplay:10.37,2013-05-25 23:20:00,
2013-05-25 16:25:00,67.0,43.1,29.78,SSW,213,20.0,28.0,42,0.00,CLR,,0.00,WeatherDisplay:10.37,2013-05-25 23:25:00,
2013-05-25 16:30:00,67.2,42.7,29.78,SW,225,21.0,29.0,41,0.00,CLR,,0.00,WeatherDisplay:10.37,2013-05-25 23:30:00,
2013-05-25 16:35:00,67.0,42.5,29.78,SW,214,20.0,30.0,41,0.00,CLR,,0.00,WeatherDisplay:10.37,2013-05-25 23:35:00,
2013-05-25 16:40:00,67.5,43.0,29.78,SSW,213,20.0,30.0,41,0.00,CLR,,0.00,WeatherDisplay:10.37,2013-05-25 23:40:00,
2013-05-25 16:45:00,67.5,43.0,29.78,SW,225,20.0,29.0,41,0.00,CLR,,0.00,WeatherDisplay:10.37,2013-05-25 23:45:00,
2013-05-25 16:50:00,67.4,43.5,29.77,SW,225,20.0,27.0,42,0.00,CLR,,0.00,WeatherDisplay:10.37,2013-05-25 23:50:00,
2013-05-25 16:55:00,67.3,43.4,29.77,SSW,213,20.0,28.0,42,0.00,CLR,,0.00,WeatherDisplay:10.37,2013-05-25 23:55:00,
2013-05-25 17:00:00,67.0,43.8,29.77,SSW,213,20.0,28.0,43,0.00,CLR,,0.00,WeatherDisplay:10.37,2013-05-26 00:00:00,
2013-05-25 17:05:00,66.8,43.6,29.78,SW,225,20.0,28.0,43,0.00,CLR,,0.00,WeatherDisplay:10.37,2013-05-26 00:05:00,
2013-05-25 17:10:00,66.6,43.4,29.78,SW,225,20.0,28.0,43,0.00,CLR,,0.00,WeatherDisplay:10.37,2013-05-26 00:10:00,
2013-05-25 17:15:00,66.4,42.6,29.78,SW,225,18.0,28.0,42,0.00,CLR,,0.00,WeatherDisplay:10.37,2013-05-26 00:15:00,
2013-05-25 17:20:00,66.2,43.0,29.78,SW,225,20.0,27.0,43,0.00,CLR,,0.00,WeatherDisplay:10.37,2013-05-26 00:20:00,
2013-05-25 17:25:00,66.0,42.9,29.78,SW,214,20.0,28.0,43,0.00,CLR,,0.00,WeatherDisplay:10.37,2013-05-26 00:25:00,
2013-05-25 17:30:00,66.1,42.9,29.78,SSW,202,18.0,26.0,43,0.00,CLR,,0.00,WeatherDisplay:10.37,2013-05-26 00:30:00,
2013-05-25 17:35:00,66.2,43.0,29.78,SSW,202,20.0,30.0,43,0.00,CLR,,0.00,WeatherDisplay:10.37,2013-05-26 00:35:00,
2013-05-25 17:40:00,65.7,42.6,29.78,SSW,202,20.0,28.0,43,0.00,CLR,,0.00,WeatherDisplay:10.37,2013-05-26 00:40:00,
2013-05-25 17:45:00,65.5,42.4,29.78,SSW,213,20.0,26.0,43,0.00,CLR,,0.00,WeatherDisplay:10.37,2013-05-26 00:45:00,
2013-05-25 17:50:00,65.6,41.9,29.78,SW,225,20.0,26.0,42,0.00,CLR,,0.00,WeatherDisplay:10.37,2013-05-26 00:50:00,
2013-05-25 17:55:00,65.4,42.3,29.78,SW,225,20.0,27.0,43,0.00,CLR,,0.00,WeatherDisplay:10.37,2013-05-26 00:55:00,
2013-05-25 18:00:00,65.1,42.0,29.78,SW,214,18.0,26.0,43,0.00,CLR,,0.00,WeatherDisplay:10.37,2013-05-26 01:00:00,
2013-05-25 18:05:00,64.9,41.2,29.79,SSW,202,17.0,26.0,42,0.00,CLR,,0.00,WeatherDisplay:10.37,2013-05-26 01:05:00,
2013-05-25 18:10:00,64.9,41.2,29.79,SSW,202,20.0,28.0,42,0.00,CLR,,0.00,WeatherDisplay:10.37,2013-05-26 01:10:00,
2013-05-25 18:15:00,64.4,40.8,29.79,SSW,213,20.0,27.0,42,0.00,CLR,,0.00,WeatherDisplay:10.37,2013-05-26 01:15:00,
2013-05-25 18:20:00,64.3,41.3,29.78,SSW,213,20.0,25.0,43,0.00,CLR,,0.00,WeatherDisplay:10.37,2013-05-26 01:20:00,
2013-05-25 18:25:00,64.0,41.0,29.78,SW,214,20.0,30.0,43,0.00,CLR,,0.00,WeatherDisplay:10.37,2013-05-26 01:25:00,
2013-05-25 18:30:00,63.6,40.1,29.78,SW,225,20.0,26.0,42,0.00,CLR,,0.00,WeatherDisplay:10.37,2013-05-26 01:30:00,
2013-05-25 18:35:00,63.6,40.7,29.78,SSW,213,20.0,27.0,43,0.00,CLR,,0.00,WeatherDisplay:10.37,2013-05-26 01:35:00,
2013-05-25 18:40:00,63.4,40.5,29.78,SSW,202,20.0,28.0,43,0.00,CLR,,0.00,WeatherDisplay:10.37,2013-05-26 01:40:00,
2013-05-25 18:45:00,63.2,40.3,29.78,SSW,202,18.0,28.0,43,0.00,CLR,,0.00,WeatherDisplay:10.37,2013-05-26 01:45:00,
2013-05-25 18:50:00,62.8,40.0,29.79,SSW,202,20.0,25.0,43,0.00,CLR,,0.00,WeatherDisplay:10.37,2013-05-26 01:50:00,
2013-05-25 18:55:00,62.4,40.2,29.79,SSW,213,17.0,26.0,44,0.00,CLR,,0.00,WeatherDisplay:10.37,2013-05-26 01:55:00,
2013-05-25 19:00:00,62.3,39.5,29.79,SW,225,20.0,28.0,43,0.00,CLR,,0.00,WeatherDisplay:10.37,2013-05-26 02:00:00,
2013-05-25 19:05:00,61.8,39.1,29.79,SW,225,20.0,27.0,43,0.00,CLR,,0.00,WeatherDisplay:10.37,2013-05-26 02:05:00,
2013-05-25 19:10:00,61.3,40.3,29.79,SW,214,20.0,26.0,46,0.00,CLR,,0.00,WeatherDisplay:10.37,2013-05-26 02:10:00,
2013-05-25 19:15:00,61.0,40.1,29.79,SSW,202,17.0,26.0,46,0.00,CLR,,0.00,WeatherDisplay:10.37,2013-05-26 02:15:00,
2013-05-25 19:20:00,60.5,40.2,29.79,SSW,202,16.0,26.0,47,0.00,CLR,,0.00,WeatherDisplay:10.37,2013-05-26 02:20:00,
2013-05-25 19:25:00,60.0,40.2,29.79,SSW,202,20.0,27.0,48,0.00,CLR,,0.00,WeatherDisplay:10.37,2013-05-26 02:25:00,
2013-05-25 19:30:00,59.6,39.9,29.79,SSW,202,18.0,25.0,48,0.00,CLR,,0.00,WeatherDisplay:10.37,2013-05-26 02:30:00,
2013-05-25 19:35:00,59.2,40.0,29.79,SSW,202,16.0,22.0,49,0.00,CLR,,0.00,WeatherDisplay:10.37,2013-05-26 02:35:00,
2013-05-25 19:40:00,58.8,39.7,29.79,SSW,202,15.0,27.0,49,0.00,CLR,,0.00,WeatherDisplay:10.37,2013-05-26 02:40:00,
2013-05-25 19:45:00,58.4,40.3,29.79,SSW,202,14.0,20.0,51,0.00,CLR,,0.00,WeatherDisplay:10.37,2013-05-26 02:45:00,
2013-05-25 19:50:00,58.1,40.6,29.81,SSW,202,15.0,24.0,52,0.00,CLR,,0.00,WeatherDisplay:10.37,2013-05-26 02:50:00,
2013-05-25 19:55:00,57.7,40.7,29.81,SSW,202,13.0,19.0,53,0.00,CLR,,0.00,WeatherDisplay:10.37,2013-05-26 02:55:00,
2013-05-25 20:00:00,57.5,41.4,29.81,SSW,202,14.0,19.0,55,0.00,CLR,,0.00,WeatherDisplay:10.37,2013-05-26 03:00:00,
2013-05-25 20:05:00,57.6,40.1,29.81,SSW,209,13.0,23.0,52,0.00,CLR,,0.00,WeatherDisplay:10.37,2013-05-26 03:05:00,
2013-05-25 20:10:00,56.9,42.7,29.81,SSW,202,12.0,18.0,59,0.00,CLR,,0.00,WeatherDisplay:10.37,2013-05-26 03:10:00,
2013-05-25 20:15:00,56.6,43.7,29.81,SSW,202,12.0,20.0,62,0.00,CLR,,0.00,WeatherDisplay:10.37,2013-05-26 03:15:00,
2013-05-25 20:20:00,56.4,44.4,29.80,SSW,202,14.0,20.0,64,0.00,CLR,,0.00,WeatherDisplay:10.37,2013-05-26 03:20:00,
2013-05-25 20:25:00,56.0,44.4,29.80,SSW,202,14.0,21.0,65,0.00,CLR,,0.00,WeatherDisplay:10.37,2013-05-26 03:25:00,
2013-05-25 20:30:00,55.6,44.8,29.80,SSW,202,12.0,19.0,67,0.00,CLR,,0.00,WeatherDisplay:10.37,2013-05-26 03:30:00,
2013-05-25 20:35:00,55.3,44.9,29.80,SSW,202,12.0,18.0,68,0.00,CLR,,0.00,WeatherDisplay:10.37,2013-05-26 03:35:00,
2013-05-25 20:40:00,55.0,45.0,29.80,SSW,202,13.0,19.0,69,0.00,CLR,,0.00,WeatherDisplay:10.37,2013-05-26 03:40:00,
2013-05-25 20:45:00,54.8,45.2,29.80,SSW,202,12.0,18.0,70,0.00,CLR,,0.00,WeatherDisplay:10.37,2013-05-26 03:45:00,
2013-05-25 20:50:00,54.6,45.0,29.81,SSW,202,12.0,16.0,70,0.00,CLR,,0.00,WeatherDisplay:10.37,2013-05-26 03:50:00,
2013-05-25 20:55:00,54.4,45.2,29.81,SSW,202,12.0,18.0,71,0.00,CLR,,0.00,WeatherDisplay:10.37,2013-05-26 03:55:00,
2013-05-25 21:00:00,54.2,45.0,29.81,SSW,202,10.0,16.0,71,0.00,CLR,,0.00,WeatherDisplay:10.37,2013-05-26 04:00:00,
2013-05-25 21:05:00,54.0,45.2,29.82,SSW,202,9.0,17.0,72,0.00,CLR,,0.00,WeatherDisplay:10.37,2013-05-26 04:05:00,
2013-05-25 21:10:00,53.8,45.0,29.82,SSW,202,10.0,14.0,72,0.00,CLR,,0.00,WeatherDisplay:10.37,2013-05-26 04:10:00,
2013-05-25 21:15:00,53.6,45.2,29.82,SSW,202,8.0,17.0,73,0.00,CLR,,0.00,WeatherDisplay:10.37,2013-05-26 04:15:00,
2013-05-25 21:20:00,53.4,45.0,29.81,SSW,202,7.0,11.0,73,0.00,CLR,,0.00,WeatherDisplay:10.37,2013-05-26 04:20:00,
2013-05-25 21:25:00,53.2,44.8,29.81,SSW,202,7.0,12.0,73,0.00,CLR,,0.00,WeatherDisplay:10.37,2013-05-26 04:25:00,
2013-05-25 21:30:00,53.0,44.9,29.81,SSW,202,6.0,14.0,74,0.00,CLR,,0.00,WeatherDisplay:10.37,2013-05-26 04:30:00,
2013-05-25 21:35:00,52.9,44.8,29.82,South,190,7.0,12.0,74,0.00,CLR,,0.00,WeatherDisplay:10.37,2013-05-26 04:35:00,
2013-05-25 21:40:00,52.9,44.8,29.81,SSW,204,5.0,11.0,74,0.00,CLR,,0.00,WeatherDisplay:10.37,2013-05-26 04:40:00,
2013-05-25 21:45:00,52.8,44.7,29.81,SSW,194,6.0,12.0,74,0.00,CLR,,0.00,WeatherDisplay:10.37,2013-05-26 04:45:00,
2013-05-25 21:50:00,52.5,44.8,29.82,South,180,3.0,7.0,75,0.00,CLR,,0.00,WeatherDisplay:10.37,2013-05-26 04:50:00,
2013-05-25 21:55:00,52.3,44.6,29.82,South,180,3.0,10.0,75,0.00,CLR,,0.00,WeatherDisplay:10.37,2013-05-26 04:55:00,
2013-05-25 22:00:00,52.2,44.5,29.82,South,180,6.0,11.0,75,0.00,CLR,,0.00,WeatherDisplay:10.37,2013-05-26 05:00:00,
2013-05-25 22:05:00,52.2,44.5,29.82,South,180,7.0,12.0,75,0.00,CLR,,0.00,WeatherDisplay:10.37,2013-05-26 05:05:00,
2013-05-25 22:10:00,52.2,44.9,29.82,South,180,6.0,10.0,76,0.00,CLR,,0.00,WeatherDisplay:10.37,2013-05-26 05:10:00,
2013-05-25 22:15:00,52.1,44.8,29.82,South,180,6.0,10.0,76,0.00,CLR,,0.00,WeatherDisplay:10.37,2013-05-26 05:15:00,
2013-05-25 22:20:00,52.0,44.7,29.82,South,180,5.0,9.0,76,0.00,CLR,,0.00,WeatherDisplay:10.37,2013-05-26 05:20:00,
2013-05-25 22:25:00,51.8,44.5,29.82,South,180,5.0,9.0,76,0.00,CLR,,0.00,WeatherDisplay:10.37,2013-05-26 05:25:00,
2013-05-25 22:30:00,51.7,44.7,29.82,South,180,3.0,5.0,77,0.00,CLR,,0.00,WeatherDisplay:10.37,2013-05-26 05:30:00,
2013-05-25 22:35:00,51.4,44.4,29.82,South,180,3.0,5.0,77,0.00,CLR,,0.00,WeatherDisplay:10.37,2013-05-26 05:35:00,
2013-05-25 22:40:00,51.1,44.1,29.82,South,180,3.0,7.0,77,0.00,CLR,,0.00,WeatherDisplay:10.37,2013-05-26 05:40:00,
2013-05-25 22:45:00,50.8,43.8,29.82,South,180,3.0,6.0,77,0.00,CLR,,0.00,WeatherDisplay:10.37,2013-05-26 05:45:00,
2013-05-25 22:50:00,50.7,43.8,29.82,South,180,5.0,9.0,77,0.00,CLR,,0.00,WeatherDisplay:10.37,2013-05-26 05:50:00,
2013-05-25 22:55:00,50.7,43.8,29.82,South,169,5.0,10.0,77,0.00,CLR,,0.00,WeatherDisplay:10.37,2013-05-26 05:55:00,
2013-05-25 23:00:00,50.7,44.1,29.82,SSE,158,5.0,8.0,78,0.00,CLR,,0.00,WeatherDisplay:10.37,2013-05-26 06:00:00,
2013-05-25 23:05:00,50.5,43.9,29.82,SSE,158,6.0,11.0,78,0.00,CLR,,0.00,WeatherDisplay:10.37,2013-05-26 06:05:00,
2013-05-25 23:10:00,50.5,43.9,29.82,SSE,148,5.0,7.0,78,0.00,CLR,,0.00,WeatherDisplay:10.37,2013-05-26 06:10:00,
2013-05-25 23:15:00,50.4,43.8,29.82,SE,135,6.0,9.0,78,0.00,CLR,,0.00,WeatherDisplay:10.37,2013-05-26 06:15:00,
2013-05-25 23:20:00,50.4,43.8,29.81,SE,135,3.0,10.0,78,0.00,CLR,,0.00,WeatherDisplay:10.37,2013-05-26 06:20:00,
2013-05-25 23:25:00,50.0,43.4,29.81,SE,135,1.0,3.0,78,0.00,CLR,,0.00,WeatherDisplay:10.37,2013-05-26 06:25:00,
2013-05-25 23:30:00,49.8,43.2,29.81,SE,135,2.0,5.0,78,0.00,CLR,,0.00,WeatherDisplay:10.37,2013-05-26 06:30:00,
2013-05-25 23:35:00,49.4,42.8,29.81,SE,135,1.0,3.0,78,0.00,CLR,,0.00,WeatherDisplay:10.37,2013-05-26 06:35:00,
2013-05-25 23:40:00,49.1,42.9,29.81,SE,135,3.0,4.0,79,0.00,CLR,,0.00,WeatherDisplay:10.37,2013-05-26 06:40:00,
2013-05-25 23:45:00,49.2,43.3,29.81,SE,135,3.0,6.0,80,0.00,CLR,,0.00,WeatherDisplay:10.37,2013-05-26 06:45:00,
2013-05-25 23:50:00,49.2,43.3,29.81,SE,135,3.0,6.0,80,0.00,CLR,,0.00,WeatherDisplay:10.37,2013-05-26 06:50:00,
2013-05-25 23:55:00,49.0,43.1,29.81,SE,135,3.0,6.0,80,0.00,CLR,,0.00,WeatherDisplay:10.37,2013-05-26 06:55:00,